Time;durP1;ratioP1;P1;durP2;ratioP2;P2;SDS_P1;SDS_P2;PMS_P1;PMS_P2;Temp;Humidity;BMP_temperature;BMP_pressure;BME280_temperature;BME280_humidity;BME280_pressure;Samples;Min_cycle;Max_cycle;Signal;HPM_P1;HPM_P2
2023/10/30 00:00:54;;;;;;;;;;;11.80;99.90;;;;;;5064182;28;19920;-76
2023/10/30 00:03:20;;;;;;;;;;;11.90;99.90;;;;;;5064392;28;19956;-76
2023/10/30 00:05:48;;;;;;;;;;;11.90;99.90;;;;;;5064016;28;19921;-76
2023/10/30 00:08:16;;;;;;;;;;;11.90;99.90;;;;;;5063577;28;19928;-75
2023/10/30 00:10:42;;;;;;;;;;;11.90;99.90;;;;;;5063750;28;20241;-75
2023/10/30 00:13:09;;;;;;;;;;;11.90;99.90;;;;;;5064133;28;19988;-75
2023/10/30 00:15:36;;;;;;;;;;;11.80;99.90;;;;;;5064033;28;19980;-75
2023/10/30 00:18:04;;;;;;;;;;;11.80;99.90;;;;;;5063549;28;20043;-76
2023/10/30 00:20:30;;;;;;;;;;;11.80;99.90;;;;;;5063750;28;19993;-75
2023/10/30 00:22:57;;;;;;;;;;;11.80;99.90;;;;;;5063926;28;19979;-75
2023/10/30 00:25:24;;;;;;;;;;;11.90;99.90;;;;;;5063640;28;19920;-75
2023/10/30 00:27:50;;;;;;;;;;;11.90;99.90;;;;;;5062808;28;19927;-75
2023/10/30 00:30:18;;;;;;;;;;;11.80;99.90;;;;;;5063811;28;19988;-75
2023/10/30 00:32:44;;;;;;;;;;;11.80;99.90;;;;;;5063895;28;20095;-75
2023/10/30 00:35:12;;;;;;;;;;;11.90;99.90;;;;;;5063941;28;19983;-75
2023/10/30 00:37:39;;;;;;;;;;;11.90;99.90;;;;;;5063735;28;19956;-75
2023/10/30 00:40:06;;;;;;;;;;;11.80;99.90;;;;;;5063534;28;19991;-76
2023/10/30 00:42:33;;;;;;;;;;;11.90;99.90;;;;;;5063793;28;19921;-76
2023/10/30 00:44:59;;;;;;;;;;;11.90;99.90;;;;;;5063637;28;20028;-75
2023/10/30 00:47:26;;;;;;;;;;;11.90;99.90;;;;;;5063196;28;20210;-75
2023/10/30 00:49:52;;;;;;;;;;;11.90;99.90;;;;;;5062984;28;19954;-76
2023/10/30 00:52:20;;;;;;;;;;;11.80;99.90;;;;;;5063543;28;19956;-75
2023/10/30 00:54:47;;;;;;;;;;;11.80;99.90;;;;;;5063518;28;19956;-76
2023/10/30 00:57:14;;;;;;;;;;;11.80;99.90;;;;;;5063130;28;19920;-75
2023/10/30 00:59:41;;;;;;;;;;;11.90;99.90;;;;;;5063292;28;20060;-75
2023/10/30 01:02:07;;;;;;;;;;;11.90;99.90;;;;;;5063206;28;19921;-75
2023/10/30 01:04:34;;;;;;;;;;;11.80;99.90;;;;;;5063529;28;19987;-75
2023/10/30 01:07:01;;;;;;;;;;;11.80;99.90;;;;;;5055266;28;19959;-76
2023/10/30 01:09:29;;;;;;;;;;;11.80;99.90;;;;;;5062768;28;19921;-75
2023/10/30 01:11:56;;;;;;;;;;;11.80;99.90;;;;;;5063188;28;19967;-75
2023/10/30 01:14:22;;;;;;;;;;;11.90;99.90;;;;;;5063454;28;19999;-76
2023/10/30 01:16:49;;;;;;;;;;;11.80;99.90;;;;;;5063065;28;20202;-75
2023/10/30 01:19:16;;;;;;;;;;;11.90;99.90;;;;;;5063073;28;19987;-74
2023/10/30 01:21:42;;;;;;;;;;;11.90;99.90;;;;;;5060913;28;19920;-75
2023/10/30 01:24:09;;;;;;;;;;;11.90;99.90;;;;;;5063035;28;19952;-75
2023/10/30 01:26:38;;;;;;;;;;;11.90;99.90;;;;;;5056286;28;19952;-75
2023/10/30 01:29:05;;;;;;;;;;;11.90;99.90;;;;;;5054985;28;20117;-75
2023/10/30 01:31:32;;;;;;;;;;;11.90;99.90;;;;;;5062591;28;19955;-75
2023/10/30 01:33:59;;;;;;;;;;;11.90;99.90;;;;;;5063192;28;19963;-75
2023/10/30 01:36:25;;;;;;;;;;;11.90;99.90;;;;;;5063212;28;19987;-75
2023/10/30 01:38:52;;;;;;;;;;;11.90;99.90;;;;;;5064274;28;19959;-76
2023/10/30 01:41:19;;;;;;;;;;;11.90;99.90;;;;;;5067058;28;20173;-75
2023/10/30 01:43:47;;;;;;;;;;;11.90;99.90;;;;;;5066910;28;19921;-75
2023/10/30 01:46:13;;;;;;;;;;;11.80;99.90;;;;;;5066888;28;19992;-76
2023/10/30 01:48:41;;;;;;;;;;;11.80;99.90;;;;;;5066113;28;19921;-75
2023/10/30 01:51:08;;;;;;;;;;;11.80;99.90;;;;;;5066779;28;19921;-75
2023/10/30 01:53:35;;;;;;;;;;;11.90;99.90;;;;;;5066938;28;20174;-76
2023/10/30 01:56:02;;;;;;;;;;;11.90;99.90;;;;;;5058358;28;19959;-75
2023/10/30 01:58:30;;;;;;;;;;;12.00;99.90;;;;;;5066080;28;20233;-75
2023/10/30 02:00:58;;;;;;;;;;;12.00;99.90;;;;;;5066618;28;19955;-75
2023/10/30 02:03:25;;;;;;;;;;;11.90;99.90;;;;;;5066666;28;20431;-76
2023/10/30 02:05:52;;;;;;;;;;;11.90;99.90;;;;;;5066500;28;19979;-76
2023/10/30 02:08:18;;;;;;;;;;;11.90;99.90;;;;;;5066242;28;20364;-75
2023/10/30 02:10:45;;;;;;;;;;;12.00;99.90;;;;;;5066411;28;19955;-75
2023/10/30 02:13:12;;;;;;;;;;;11.90;99.90;;;;;;5066476;28;19959;-75
2023/10/30 02:15:38;;;;;;;;;;;12.00;99.90;;;;;;5066368;28;19991;-75
2023/10/30 02:18:06;;;;;;;;;;;12.00;99.90;;;;;;5065928;28;19925;-76
2023/10/30 02:20:33;;;;;;;;;;;12.00;99.90;;;;;;5065970;28;20214;-75
2023/10/30 02:23:00;;;;;;;;;;;12.00;99.90;;;;;;5065900;28;20294;-76
2023/10/30 02:25:28;;;;;;;;;;;12.00;99.90;;;;;;5066202;28;19989;-76
2023/10/30 02:27:55;;;;;;;;;;;11.90;99.90;;;;;;5065504;28;19929;-75
2023/10/30 02:30:22;;;;;;;;;;;11.90;99.90;;;;;;5066060;28;19988;-75
2023/10/30 02:32:50;;;;;;;;;;;12.00;99.90;;;;;;5066116;28;19952;-76
2023/10/30 02:35:17;;;;;;;;;;;11.90;99.90;;;;;;5065793;28;19920;-76
2023/10/30 02:37:44;;;;;;;;;;;12.00;99.90;;;;;;5065719;28;20166;-75
2023/10/30 02:40:11;;;;;;;;;;;11.90;99.90;;;;;;5065590;28;19952;-75
2023/10/30 02:42:40;;;;;;;;;;;11.90;99.90;;;;;;5065847;28;19984;-75
2023/10/30 02:45:07;;;;;;;;;;;11.90;99.90;;;;;;5065882;28;19952;-76
2023/10/30 02:47:34;;;;;;;;;;;11.90;99.90;;;;;;5065666;28;19992;-75
2023/10/30 02:50:01;;;;;;;;;;;11.90;99.90;;;;;;5056163;28;19991;-75
2023/10/30 02:52:29;;;;;;;;;;;11.90;99.90;;;;;;5065433;28;19943;-75
2023/10/30 02:54:55;;;;;;;;;;;11.90;99.90;;;;;;5065665;28;19928;-75
2023/10/30 02:57:22;;;;;;;;;;;11.90;99.90;;;;;;5065177;28;19920;-75
2023/10/30 02:59:50;;;;;;;;;;;11.90;99.90;;;;;;5065239;28;19927;-75
2023/10/30 03:02:16;;;;;;;;;;;11.90;99.90;;;;;;5059952;28;19954;-76
2023/10/30 03:04:43;;;;;;;;;;;11.90;99.90;;;;;;5065115;28;20229;-75
2023/10/30 03:07:10;;;;;;;;;;;11.80;99.90;;;;;;5065233;28;19927;-76
2023/10/30 03:09:37;;;;;;;;;;;11.80;99.90;;;;;;5064713;28;20177;-75
2023/10/30 03:12:04;;;;;;;;;;;11.80;99.90;;;;;;5065135;28;19921;-75
2023/10/30 03:14:30;;;;;;;;;;;11.80;99.90;;;;;;5065254;28;19984;-76
2023/10/30 03:16:59;;;;;;;;;;;11.70;99.90;;;;;;5065269;28;19927;-75
2023/10/30 03:19:25;;;;;;;;;;;11.80;99.90;;;;;;5064968;28;20135;-76
2023/10/30 03:21:52;;;;;;;;;;;11.70;99.90;;;;;;5065045;28;19928;-76
2023/10/30 03:24:18;;;;;;;;;;;11.70;99.90;;;;;;5065017;28;20109;-76
2023/10/30 03:26:45;;;;;;;;;;;11.70;99.90;;;;;;5064893;28;19983;-75
2023/10/30 03:29:12;;;;;;;;;;;11.70;99.90;;;;;;5064676;28;19952;-75
2023/10/30 03:31:38;;;;;;;;;;;11.60;99.90;;;;;;5064686;28;20265;-74
2023/10/30 03:34:06;;;;;;;;;;;11.70;99.90;;;;;;5064572;28;19979;-75
2023/10/30 03:36:33;;;;;;;;;;;11.60;99.90;;;;;;5064799;28;19988;-76
2023/10/30 03:39:00;;;;;;;;;;;11.60;99.90;;;;;;5064431;28;19952;-74
2023/10/30 03:41:27;;;;;;;;;;;11.60;99.90;;;;;;5061661;28;19921;-76
2023/10/30 03:43:53;;;;;;;;;;;11.60;99.90;;;;;;5064684;28;19980;-75
2023/10/30 03:46:20;;;;;;;;;;;11.50;99.90;;;;;;5064322;28;19920;-75
2023/10/30 03:48:46;;;;;;;;;;;11.60;99.90;;;;;;5063973;28;19921;-76
2023/10/30 03:51:14;;;;;;;;;;;11.50;99.90;;;;;;5064240;28;19927;-76
2023/10/30 03:53:41;;;;;;;;;;;11.50;99.90;;;;;;5063820;28;19927;-75
2023/10/30 03:56:08;;;;;;;;;;;11.50;99.90;;;;;;5064433;28;19927;-75
2023/10/30 03:58:35;;;;;;;;;;;11.50;99.90;;;;;;5064106;28;20044;-75
2023/10/30 04:01:05;;;;;;;;;;;11.50;99.90;;;;;;5064339;28;19962;-76
2023/10/30 04:03:31;;;;;;;;;;;11.50;99.90;;;;;;5064407;28;19960;-76
2023/10/30 04:06:00;;;;;;;;;;;11.50;99.90;;;;;;5063778;28;19921;-75
2023/10/30 04:08:28;;;;;;;;;;;11.50;99.90;;;;;;5063711;28;19984;-76
2023/10/30 04:10:54;;;;;;;;;;;11.50;99.90;;;;;;5064169;28;19920;-75
2023/10/30 04:13:21;;;;;;;;;;;11.50;99.90;;;;;;5064158;28;19987;-75
2023/10/30 04:15:48;;;;;;;;;;;11.50;99.90;;;;;;5063911;28;19988;-75
2023/10/30 04:18:15;;;;;;;;;;;11.50;99.90;;;;;;5063506;28;19920;-75
2023/10/30 04:20:41;;;;;;;;;;;11.40;99.90;;;;;;5063920;28;19927;-76
2023/10/30 04:23:08;;;;;;;;;;;11.50;99.90;;;;;;5064036;28;19920;-74
2023/10/30 04:25:36;;;;;;;;;;;11.50;99.90;;;;;;5064055;28;19952;-75
2023/10/30 04:28:02;;;;;;;;;;;11.50;99.90;;;;;;5063735;28;20166;-76
2023/10/30 04:30:29;;;;;;;;;;;11.50;99.90;;;;;;5063630;28;20036;-76
2023/10/30 04:32:57;;;;;;;;;;;11.40;99.90;;;;;;5063802;28;19929;-75
2023/10/30 04:35:23;;;;;;;;;;;11.40;99.90;;;;;;5063427;28;19921;-75
2023/10/30 04:37:50;;;;;;;;;;;11.40;99.90;;;;;;5063452;28;19921;-75
2023/10/30 04:40:17;;;;;;;;;;;11.40;99.90;;;;;;5063562;28;19928;-75
2023/10/30 04:42:47;;;;;;;;;;;11.40;99.90;;;;;;5062684;28;20130;-75
2023/10/30 04:45:14;;;;;;;;;;;11.30;99.90;;;;;;5063575;28;19944;-75
2023/10/30 04:47:40;;;;;;;;;;;11.30;99.90;;;;;;5063114;28;20289;-74
2023/10/30 04:50:07;;;;;;;;;;;11.30;99.90;;;;;;5062913;28;19921;-75
2023/10/30 04:52:34;;;;;;;;;;;11.20;99.90;;;;;;5063360;28;20248;-74
2023/10/30 04:55:01;;;;;;;;;;;11.10;99.90;;;;;;5063554;28;19979;-74
2023/10/30 04:57:27;;;;;;;;;;;11.10;99.90;;;;;;5063634;28;20165;-75
2023/10/30 04:59:55;;;;;;;;;;;11.10;99.90;;;;;;5063271;28;19920;-75
2023/10/30 05:02:22;;;;;;;;;;;11.10;99.90;;;;;;5063601;28;20116;-74
2023/10/30 05:04:49;;;;;;;;;;;11.10;99.90;;;;;;5063579;28;19920;-75
2023/10/30 05:07:15;;;;;;;;;;;11.00;99.90;;;;;;5063385;28;20273;-74
2023/10/30 05:09:42;;;;;;;;;;;11.00;99.90;;;;;;5063155;28;19921;-75
2023/10/30 05:12:09;;;;;;;;;;;10.90;99.90;;;;;;5063569;28;20169;-74
2023/10/30 05:14:35;;;;;;;;;;;10.90;99.90;;;;;;5066133;28;19956;-75
2023/10/30 05:17:03;;;;;;;;;;;10.90;99.90;;;;;;5059271;28;19927;-74
2023/10/30 05:19:30;;;;;;;;;;;10.80;99.90;;;;;;5067278;28;19953;-74
2023/10/30 05:21:57;;;;;;;;;;;10.80;99.90;;;;;;5067184;28;19928;-74
2023/10/30 05:24:24;;;;;;;;;;;10.70;99.90;;;;;;5067339;28;19987;-75
2023/10/30 05:26:52;;;;;;;;;;;10.70;99.90;;;;;;5067383;28;19928;-74
2023/10/30 05:29:18;;;;;;;;;;;10.70;99.90;;;;;;5066652;28;19928;-75
2023/10/30 05:31:45;;;;;;;;;;;10.70;99.90;;;;;;5067068;28;19979;-74
2023/10/30 05:34:13;;;;;;;;;;;10.60;99.90;;;;;;5067429;28;19927;-74
2023/10/30 05:36:40;;;;;;;;;;;10.60;99.90;;;;;;5067176;28;19944;-75
2023/10/30 05:39:06;;;;;;;;;;;10.60;99.90;;;;;;5066912;28;20138;-74
2023/10/30 05:41:33;;;;;;;;;;;10.50;99.90;;;;;;5066943;28;19921;-74
2023/10/30 05:44:00;;;;;;;;;;;10.50;99.90;;;;;;5067022;28;19921;-74
2023/10/30 05:46:26;;;;;;;;;;;10.50;99.90;;;;;;5066720;28;19921;-74
2023/10/30 05:48:53;;;;;;;;;;;10.40;99.90;;;;;;5066519;28;19985;-74
2023/10/30 05:51:21;;;;;;;;;;;10.40;99.90;;;;;;5066678;28;20286;-75
2023/10/30 05:53:49;;;;;;;;;;;10.30;99.90;;;;;;5067098;28;19959;-74
2023/10/30 05:56:15;;;;;;;;;;;10.30;99.90;;;;;;5066726;28;20258;-75
2023/10/30 05:58:42;;;;;;;;;;;10.40;99.90;;;;;;5066215;28;19987;-74
2023/10/30 06:01:09;;;;;;;;;;;10.30;99.90;;;;;;5066718;28;19988;-75
2023/10/30 06:03:36;;;;;;;;;;;10.20;99.90;;;;;;5066318;28;19992;-74
2023/10/30 06:06:04;;;;;;;;;;;10.10;99.90;;;;;;5064866;28;19920;-75
2023/10/30 06:08:32;;;;;;;;;;;10.10;99.90;;;;;;5066421;28;19921;-76
2023/10/30 06:10:59;;;;;;;;;;;10.10;99.90;;;;;;5066291;28;19952;-75
2023/10/30 06:13:26;;;;;;;;;;;10.10;99.90;;;;;;5066675;28;19971;-76
2023/10/30 06:15:54;;;;;;;;;;;10.10;99.90;;;;;;5066440;28;19929;-77
2023/10/30 06:18:21;;;;;;;;;;;10.00;99.90;;;;;;5065730;28;20122;-76
2023/10/30 06:20:47;;;;;;;;;;;10.00;99.90;;;;;;5066329;28;19987;-74
2023/10/30 06:23:14;;;;;;;;;;;10.00;99.90;;;;;;5066127;28;19952;-75
2023/10/30 06:25:44;;;;;;;;;;;9.90;99.90;;;;;;5065139;28;20125;-76
2023/10/30 06:28:12;;;;;;;;;;;9.90;99.90;;;;;;5066082;28;20229;-76
2023/10/30 06:30:39;;;;;;;;;;;9.90;99.90;;;;;;5066164;28;19921;-76
2023/10/30 06:33:05;;;;;;;;;;;9.90;99.90;;;;;;5066840;28;19952;-76
2023/10/30 06:35:32;;;;;;;;;;;9.90;99.90;;;;;;5066839;28;19989;-77
2023/10/30 06:37:58;;;;;;;;;;;9.90;99.90;;;;;;5066079;28;19984;-75
2023/10/30 06:40:25;;;;;;;;;;;9.90;99.90;;;;;;5065745;28;19984;-76
2023/10/30 06:42:53;;;;;;;;;;;9.90;99.90;;;;;;5065900;28;20232;-76
2023/10/30 06:45:19;;;;;;;;;;;9.90;99.90;;;;;;5066118;28;19991;-76
2023/10/30 06:47:46;;;;;;;;;;;9.90;99.90;;;;;;5065748;28;19921;-76
2023/10/30 06:50:13;;;;;;;;;;;9.90;99.90;;;;;;5065402;28;19992;-76
2023/10/30 06:52:39;;;;;;;;;;;9.90;99.90;;;;;;5065905;28;19921;-77
2023/10/30 06:55:07;;;;;;;;;;;9.90;99.90;;;;;;5065652;28;19983;-76
2023/10/30 06:57:33;;;;;;;;;;;9.90;99.90;;;;;;5065525;28;19955;-76
2023/10/30 07:00:01;;;;;;;;;;;9.80;99.90;;;;;;5065570;28;19927;-76
2023/10/30 07:02:29;;;;;;;;;;;9.80;99.90;;;;;;5070176;28;19925;-77
2023/10/30 07:04:56;;;;;;;;;;;9.80;99.90;;;;;;5065053;28;19929;-76
2023/10/30 07:07:22;;;;;;;;;;;9.80;99.90;;;;;;5065406;28;19996;-76
2023/10/30 07:09:50;;;;;;;;;;;9.80;99.90;;;;;;5065025;28;19944;-77
2023/10/30 07:12:16;;;;;;;;;;;9.80;99.90;;;;;;5068330;28;19947;-76
2023/10/30 07:14:43;;;;;;;;;;;9.80;99.90;;;;;;5067541;28;19959;-76
2023/10/30 07:17:11;;;;;;;;;;;9.90;99.90;;;;;;5065304;28;19983;-76
2023/10/30 07:19:38;;;;;;;;;;;9.90;99.90;;;;;;5064391;28;19988;-76
2023/10/30 07:22:05;;;;;;;;;;;9.90;99.90;;;;;;5064904;28;19924;-79
2023/10/30 07:24:31;;;;;;;;;;;9.90;99.90;;;;;;5065328;28;19921;-77
2023/10/30 07:26:58;;;;;;;;;;;10.00;99.90;;;;;;5065204;28;19921;-76
2023/10/30 07:29:25;;;;;;;;;;;10.00;99.90;;;;;;5064106;28;19921;-76
2023/10/30 07:31:51;;;;;;;;;;;10.00;99.90;;;;;;5064995;28;19920;-76
2023/10/30 07:34:19;;;;;;;;;;;10.10;99.90;;;;;;5064976;28;20151;-77
2023/10/30 07:36:46;;;;;;;;;;;10.20;99.90;;;;;;5062805;28;20265;-77
2023/10/30 07:39:12;;;;;;;;;;;10.30;99.90;;;;;;5064232;28;19984;-76
2023/10/30 07:41:39;;;;;;;;;;;10.20;99.90;;;;;;5063776;28;20225;-76
2023/10/30 07:44:07;;;;;;;;;;;10.20;99.90;;;;;;5064574;28;20268;-76
2023/10/30 07:46:33;;;;;;;;;;;10.30;99.90;;;;;;5064666;28;20074;-76
2023/10/30 07:49:03;;;;;;;;;;;10.30;99.90;;;;;;5063877;28;20185;-77
2023/10/30 07:51:30;;;;;;;;;;;10.40;99.90;;;;;;5064317;28;19921;-77
2023/10/30 07:53:57;;;;;;;;;;;10.40;99.90;;;;;;5067128;28;19952;-76
2023/10/30 07:56:24;;;;;;;;;;;10.50;99.90;;;;;;5064416;28;19927;-77
2023/10/30 07:58:51;;;;;;;;;;;10.50;99.90;;;;;;5065308;28;19925;-78
2023/10/30 08:01:20;;;;;;;;;;;10.50;99.90;;;;;;5064639;28;20183;-77
2023/10/30 08:03:47;;;;;;;;;;;10.50;99.90;;;;;;5064062;28;20117;-77
2023/10/30 08:06:13;;;;;;;;;;;10.50;99.90;;;;;;5063940;28;20176;-76
2023/10/30 08:08:42;;;;;;;;;;;10.60;99.90;;;;;;5069612;28;19988;-76
2023/10/30 08:11:09;;;;;;;;;;;10.60;99.90;;;;;;5068336;28;20285;-76
2023/10/30 08:13:36;;;;;;;;;;;10.60;99.90;;;;;;5063925;28;19944;-77
2023/10/30 08:16:02;;;;;;;;;;;10.70;99.90;;;;;;5064304;28;19920;-76
2023/10/30 08:18:29;;;;;;;;;;;10.70;99.90;;;;;;5063485;28;19959;-77
2023/10/30 08:20:57;;;;;;;;;;;10.80;99.90;;;;;;5064247;28;19960;-76
2023/10/30 08:23:24;;;;;;;;;;;10.90;99.90;;;;;;5066383;28;19955;-76
2023/10/30 08:25:52;;;;;;;;;;;10.90;99.90;;;;;;5064105;28;19988;-77
2023/10/30 08:28:19;;;;;;;;;;;10.90;99.90;;;;;;5063163;28;19993;-76
2023/10/30 08:30:45;;;;;;;;;;;11.00;99.90;;;;;;5068846;28;19983;-76
2023/10/30 08:33:12;;;;;;;;;;;11.10;99.90;;;;;;5068559;28;20179;-76
2023/10/30 08:35:39;;;;;;;;;;;11.10;99.90;;;;;;5063927;28;19927;-76
2023/10/30 08:38:06;;;;;;;;;;;11.20;99.90;;;;;;5063749;28;19952;-77
2023/10/30 08:40:32;;;;;;;;;;;11.20;99.90;;;;;;5063299;28;19953;-76
2023/10/30 08:43:00;;;;;;;;;;;11.30;99.90;;;;;;5063802;28;19988;-76
2023/10/30 08:45:27;;;;;;;;;;;11.40;99.90;;;;;;5063972;28;19952;-76
2023/10/30 08:47:53;;;;;;;;;;;11.50;99.90;;;;;;5062620;28;19987;-77
2023/10/30 08:50:20;;;;;;;;;;;11.50;99.90;;;;;;5063473;28;19992;-76
2023/10/30 08:52:47;;;;;;;;;;;11.60;99.90;;;;;;5063760;28;19967;-76
2023/10/30 08:55:13;;;;;;;;;;;11.60;99.90;;;;;;5063869;28;19987;-76
2023/10/30 08:57:40;;;;;;;;;;;11.70;99.90;;;;;;5063255;28;20222;-81
2023/10/30 09:00:09;;;;;;;;;;;11.70;99.90;;;;;;5063597;28;20214;-77
2023/10/30 09:02:35;;;;;;;;;;;11.80;99.90;;;;;;5066976;28;19921;-75
2023/10/30 09:05:03;;;;;;;;;;;11.90;99.90;;;;;;5063209;28;19963;-76
2023/10/30 09:07:31;;;;;;;;;;;11.90;99.90;;;;;;5062305;28;19921;-76
2023/10/30 09:09:58;;;;;;;;;;;11.90;99.90;;;;;;5062917;28;21861;-77
2023/10/30 09:12:24;;;;;;;;;;;12.10;99.90;;;;;;5063604;28;20109;-76
2023/10/30 09:14:52;;;;;;;;;;;12.10;99.90;;;;;;5063437;28;19921;-75
2023/10/30 09:17:20;;;;;;;;;;;12.20;99.90;;;;;;5063447;28;19921;-75
2023/10/30 09:19:47;;;;;;;;;;;12.30;99.90;;;;;;5063427;28;19921;-76
2023/10/30 09:22:13;;;;;;;;;;;12.40;99.90;;;;;;5065396;28;19952;-76
2023/10/30 09:24:40;;;;;;;;;;;12.40;99.90;;;;;;5066240;28;19984;-76
2023/10/30 09:27:07;;;;;;;;;;;12.40;99.90;;;;;;5068833;28;19952;-76
2023/10/30 09:29:33;;;;;;;;;;;12.50;99.90;;;;;;5062685;28;19958;-75
2023/10/30 09:32:02;;;;;;;;;;;12.50;99.90;;;;;;5066060;28;20110;-75
2023/10/30 09:34:30;;;;;;;;;;;12.60;99.90;;;;;;5063486;28;19920;-76
2023/10/30 09:36:58;;;;;;;;;;;12.70;99.90;;;;;;5063557;28;20172;-76
2023/10/30 09:39:24;;;;;;;;;;;12.70;99.90;;;;;;5062591;28;20117;-75
2023/10/30 09:41:54;;;;;;;;;;;12.90;99.90;;;;;;5062515;28;19921;-76
2023/10/30 09:44:21;;;;;;;;;;;12.90;99.90;;;;;;5063348;28;19920;-75
2023/10/30 09:46:49;;;;;;;;;;;12.90;99.90;;;;;;5063163;28;20253;-75
2023/10/30 09:49:16;;;;;;;;;;;13.00;99.90;;;;;;5062225;28;20258;-75
2023/10/30 09:51:45;;;;;;;;;;;13.10;99.90;;;;;;5062910;28;20269;-75
2023/10/30 09:54:12;;;;;;;;;;;13.20;99.90;;;;;;5063070;28;19920;-76
2023/10/30 09:56:39;;;;;;;;;;;13.30;99.90;;;;;;5062911;28;19921;-75
2023/10/30 09:59:06;;;;;;;;;;;13.40;99.90;;;;;;5062702;28;19959;-75
2023/10/30 10:01:34;;;;;;;;;;;13.50;99.90;;;;;;5068745;28;19921;-75
2023/10/30 10:04:00;;;;;;;;;;;13.50;99.90;;;;;;5066614;28;20099;-75
2023/10/30 10:06:27;;;;;;;;;;;13.60;99.90;;;;;;5068677;28;19929;-76
2023/10/30 10:08:55;;;;;;;;;;;13.80;99.90;;;;;;5065688;28;20236;-75
2023/10/30 10:11:23;;;;;;;;;;;13.90;99.90;;;;;;5066526;28;19963;-75
2023/10/30 10:13:53;;;;;;;;;;;13.90;99.90;;;;;;5066178;28;20311;-76
2023/10/30 10:16:25;;;;;;;;;;;14.10;99.90;;;;;;5066328;28;20389;-75
2023/10/30 10:18:52;;;;;;;;;;;14.20;99.90;;;;;;5065788;28;19921;-75
2023/10/30 10:21:21;;;;;;;;;;;14.30;99.90;;;;;;5069981;28;19920;-75
2023/10/30 10:23:47;;;;;;;;;;;14.30;99.90;;;;;;5066373;28;19987;-76
2023/10/30 10:26:16;;;;;;;;;;;14.40;99.90;;;;;;5066717;28;19921;-76
2023/10/30 10:28:43;;;;;;;;;;;14.50;99.90;;;;;;5065561;28;20167;-75
2023/10/30 10:31:10;;;;;;;;;;;14.50;99.90;;;;;;5066052;28;19987;-76
2023/10/30 10:33:37;;;;;;;;;;;14.50;99.90;;;;;;5066054;28;19996;-75
2023/10/30 10:36:06;;;;;;;;;;;14.60;99.90;;;;;;5065359;28;20209;-76
2023/10/30 10:38:32;;;;;;;;;;;14.50;99.90;;;;;;5065260;28;20256;-75
2023/10/30 10:40:59;;;;;;;;;;;14.60;99.90;;;;;;5065777;28;19921;-76
2023/10/30 10:43:28;;;;;;;;;;;14.60;99.90;;;;;;5065889;28;19987;-76
2023/10/30 10:45:55;;;;;;;;;;;14.70;99.90;;;;;;5065596;28;19921;-76
2023/10/30 10:48:23;;;;;;;;;;;14.70;99.90;;;;;;5065325;28;19952;-76
2023/10/30 10:50:50;;;;;;;;;;;14.80;99.90;;;;;;5069904;28;19987;-75
2023/10/30 10:53:19;;;;;;;;;;;14.80;99.90;;;;;;5065785;28;19991;-75
2023/10/30 10:55:46;;;;;;;;;;;14.80;99.90;;;;;;5065828;28;20124;-75
2023/10/30 10:58:17;;;;;;;;;;;14.80;99.90;;;;;;5064814;28;20214;-75
2023/10/30 11:00:48;;;;;;;;;;;14.90;99.90;;;;;;5065402;28;19962;-76
2023/10/30 11:03:15;;;;;;;;;;;14.90;99.90;;;;;;5065284;28;19987;-75
2023/10/30 11:05:43;;;;;;;;;;;14.90;99.90;;;;;;5065712;28;19959;-76
2023/10/30 11:08:20;;;;;;;;;;;14.90;99.90;;;;;;5064772;28;19920;-75
2023/10/30 11:10:48;;;;;;;;;;;14.90;99.90;;;;;;5064919;28;19988;-76
2023/10/30 11:13:20;;;;;;;;;;;15.00;99.90;;;;;;5065551;28;19955;-75
2023/10/30 11:15:51;;;;;;;;;;;15.00;99.90;;;;;;5065988;28;19987;-76
2023/10/30 11:18:20;;;;;;;;;;;15.00;99.90;;;;;;5064956;28;19921;-75
2023/10/30 11:20:47;;;;;;;;;;;15.00;99.90;;;;;;5068228;28;19920;-75
2023/10/30 11:23:14;;;;;;;;;;;15.00;99.90;;;;;;5065291;28;19948;-75
2023/10/30 11:25:44;;;;;;;;;;;15.00;99.90;;;;;;5065232;28;20150;-75
2023/10/30 11:28:11;;;;;;;;;;;15.00;99.90;;;;;;5064578;28;19963;-75
2023/10/30 11:30:41;;;;;;;;;;;15.10;99.90;;;;;;5065122;28;19952;-76
2023/10/30 11:33:17;;;;;;;;;;;15.20;99.90;;;;;;5065018;28;19956;-75
2023/10/30 11:35:45;;;;;;;;;;;15.30;99.90;;;;;;5063424;28;19987;-75
2023/10/30 11:38:12;;;;;;;;;;;15.40;99.90;;;;;;5064458;28;19927;-75
2023/10/30 11:40:39;;;;;;;;;;;15.50;99.90;;;;;;5064856;28;19992;-75
2023/10/30 11:43:06;;;;;;;;;;;15.50;99.90;;;;;;5064998;28;19921;-76
2023/10/30 11:45:33;;;;;;;;;;;15.60;99.90;;;;;;5064696;28;20157;-74
2023/10/30 11:48:02;;;;;;;;;;;15.60;99.90;;;;;;5064070;28;19989;-75
2023/10/30 11:50:33;;;;;;;;;;;15.60;99.90;;;;;;5066533;28;19921;-74
2023/10/30 11:53:00;;;;;;;;;;;15.60;99.90;;;;;;5064855;28;19922;-77
2023/10/30 11:55:29;;;;;;;;;;;15.60;99.90;;;;;;5064772;28;19920;-75
2023/10/30 11:57:57;;;;;;;;;;;15.60;99.90;;;;;;5063586;28;19920;-75
2023/10/30 12:00:23;;;;;;;;;;;15.60;99.90;;;;;;5064317;28;20183;-75
2023/10/30 12:02:51;;;;;;;;;;;15.60;99.90;;;;;;5064326;28;20174;-75
2023/10/30 12:05:18;;;;;;;;;;;15.50;99.90;;;;;;5063169;28;19921;-76
2023/10/30 12:07:46;;;;;;;;;;;15.50;99.90;;;;;;5063631;28;19956;-76
2023/10/30 12:10:13;;;;;;;;;;;15.40;99.90;;;;;;5064405;28;19988;-76
2023/10/30 12:12:40;;;;;;;;;;;15.40;99.90;;;;;;5064375;28;19995;-76
2023/10/30 12:15:07;;;;;;;;;;;15.40;99.90;;;;;;5064235;28;19959;-76
2023/10/30 12:17:34;;;;;;;;;;;15.40;99.90;;;;;;5063625;28;19991;-76
2023/10/30 12:20:00;;;;;;;;;;;15.40;99.90;;;;;;5063887;28;19988;-76
2023/10/30 12:22:27;;;;;;;;;;;15.50;99.90;;;;;;5064989;28;19927;-76
2023/10/30 12:24:56;;;;;;;;;;;15.40;99.90;;;;;;5063730;28;19992;-76
2023/10/30 12:27:23;;;;;;;;;;;15.40;99.90;;;;;;5063694;28;20233;-76
2023/10/30 12:29:56;;;;;;;;;;;15.40;99.90;;;;;;5063388;28;19963;-75
2023/10/30 12:32:22;;;;;;;;;;;15.30;99.90;;;;;;5063900;28;20265;-76
2023/10/30 12:34:49;;;;;;;;;;;15.30;99.90;;;;;;5063489;28;20229;-76
2023/10/30 12:37:18;;;;;;;;;;;15.30;99.90;;;;;;5063556;28;19996;-75
2023/10/30 12:40:00;;;;;;;;;;;15.30;99.90;;;;;;5063321;28;19987;-77
2023/10/30 12:42:28;;;;;;;;;;;15.20;99.90;;;;;;5063922;28;19921;-75
2023/10/30 12:44:55;;;;;;;;;;;15.20;99.90;;;;;;5063581;28;19921;-76
2023/10/30 12:47:22;;;;;;;;;;;15.20;99.90;;;;;;5063478;28;19949;-76
2023/10/30 12:49:48;;;;;;;;;;;15.20;99.90;;;;;;5063062;28;19955;-75
2023/10/30 12:52:15;;;;;;;;;;;15.10;99.90;;;;;;5063818;28;19989;-75
2023/10/30 12:54:42;;;;;;;;;;;15.10;99.90;;;;;;5063428;28;20166;-76
2023/10/30 12:57:08;;;;;;;;;;;15.00;99.90;;;;;;5063406;28;19928;-75
2023/10/30 12:59:36;;;;;;;;;;;15.10;99.90;;;;;;5062878;28;19920;-76
2023/10/30 13:02:03;;;;;;;;;;;15.10;99.90;;;;;;5055725;28;20122;-76
2023/10/30 13:04:29;;;;;;;;;;;15.20;99.90;;;;;;5061709;28;19959;-75
2023/10/30 13:06:56;;;;;;;;;;;15.20;99.90;;;;;;5061574;28;19939;-75
2023/10/30 13:09:23;;;;;;;;;;;15.20;99.90;;;;;;5063027;28;20191;-76
2023/10/30 13:11:50;;;;;;;;;;;15.20;99.90;;;;;;5063149;28;19960;-76
2023/10/30 13:14:17;;;;;;;;;;;15.20;99.90;;;;;;5063794;28;20296;-76
2023/10/30 13:16:45;;;;;;;;;;;15.30;99.90;;;;;;5063085;28;19921;-77
2023/10/30 13:19:11;;;;;;;;;;;15.30;99.90;;;;;;5062426;28;19952;-74
2023/10/30 13:21:38;;;;;;;;;;;15.40;99.90;;;;;;5064334;28;19952;-76
2023/10/30 13:24:07;;;;;;;;;;;15.70;99.90;;;;;;5063121;28;19921;-77
2023/10/30 13:26:33;;;;;;;;;;;15.70;99.90;;;;;;5062977;28;19992;-76
2023/10/30 13:29:00;;;;;;;;;;;15.80;99.90;;;;;;5062538;28;19921;-76
2023/10/30 13:31:27;;;;;;;;;;;15.80;99.90;;;;;;5063384;28;19963;-77
2023/10/30 13:33:55;;;;;;;;;;;15.90;99.90;;;;;;5063484;28;19921;-76
2023/10/30 13:36:22;;;;;;;;;;;15.90;99.90;;;;;;5066359;28;19968;-76
2023/10/30 13:38:48;;;;;;;;;;;15.90;99.90;;;;;;5066453;28;19921;-76
2023/10/30 13:41:15;;;;;;;;;;;15.80;99.90;;;;;;5067323;28;20150;-77
2023/10/30 13:43:42;;;;;;;;;;;15.70;99.90;;;;;;5067115;28;19988;-76
2023/10/30 13:46:09;;;;;;;;;;;15.70;99.90;;;;;;5066879;28;19924;-76
2023/10/30 13:48:35;;;;;;;;;;;15.70;99.90;;;;;;5066195;28;19921;-76
2023/10/30 13:51:04;;;;;;;;;;;15.60;99.90;;;;;;5062055;28;19959;-76
2023/10/30 13:53:31;;;;;;;;;;;15.50;99.90;;;;;;5066894;28;19927;-76
2023/10/30 13:55:59;;;;;;;;;;;15.50;99.90;;;;;;5066710;28;19920;-76
2023/10/30 13:58:25;;;;;;;;;;;15.40;99.90;;;;;;5065855;28;19920;-76
2023/10/30 14:00:52;;;;;;;;;;;15.40;99.90;;;;;;5066834;28;19928;-76
2023/10/30 14:03:19;;;;;;;;;;;15.40;99.90;;;;;;5064920;28;20122;-76
2023/10/30 14:05:45;;;;;;;;;;;15.40;99.90;;;;;;5066774;28;19955;-76
2023/10/30 14:08:13;;;;;;;;;;;15.40;99.90;;;;;;5065709;28;19992;-76
2023/10/30 14:10:40;;;;;;;;;;;15.40;99.90;;;;;;5066479;28;20348;-76
2023/10/30 14:13:06;;;;;;;;;;;15.40;99.90;;;;;;5066579;28;19991;-76
2023/10/30 14:15:33;;;;;;;;;;;15.40;99.90;;;;;;5066368;28;20165;-76
2023/10/30 14:18:00;;;;;;;;;;;15.40;99.90;;;;;;5065565;28;19927;-75